ADDS METAR Data INFO
IDs: Format: Raw Decoded Include TAF

Data at: 1143 UTC 25 Jun 2018

KGYI 251135Z AUTO 02007G15KT 10SM SCT046 SCT055 BKN070 20/18 A3006 RMK AO2 LTG DSNT E AND SE P0003 T02010179
KGYI 251115Z AUTO 36010KT 10SM -VCTSRA BKN044 BKN050 OVC055 21/19 A3007 RMK AO2 LTG DSNT NE AND SE P0002 T02050187
KGYI 251055Z AUTO 35015G22KT 4SM TSRA SCT017 BKN037 OVC045 21/19 A3006 RMK AO2 LTG DSNT W THRU NE P0018 T02100194
KGYI 251035Z AUTO 28011KT 5SM +RA SCT017 BKN039 OVC050 25/23 A3003 RMK AO2 LTG DSNT SW AND W P0006 T02480227
KGYI 251015Z AUTO 26008KT 10SM SCT031 BKN045 OVC060 27/22 A3002 RMK AO2 LTG DSNT N T02700218
KGYI 250955Z AUTO 25014KT 10SM BKN034 27/22 A2999 RMK AO2 LTG DSNT NW T02680215
KGYI 250935Z AUTO 19011G18KT 10SM SCT029 BKN036 27/22 A2990 RMK AO2 T02650215
KGYI 250915Z AUTO 19014G20KT 10SM BKN034 27/22 A2988 RMK AO2 T02670215
KGYI 250855Z AUTO 19015G18KT 10SM BKN032 27/22 A2988 RMK AO2 T02680216
KGYI 250835Z AUTO 19013G17KT 10SM SCT030 26/22 A2987 RMK AO2 T02620217
KGYI 250815Z AUTO 18011G15KT 10SM CLR 26/22 A2987 RMK AO2 T02620218
KGYI 250755Z AUTO 17009KT 10SM CLR 25/21 A2986 RMK AO2 T02520213
KGYI 250735Z AUTO 15008KT 10SM CLR 25/21 A2985 RMK AO2 T02510209
KGYI 250715Z AUTO 16009KT 10SM CLR 25/21 A2985 RMK AO2 T02530205
KGYI 250655Z AUTO 15011G16KT 10SM CLR 25/20 A2984 RMK AO2 T02530202
KGYI 250635Z AUTO 15012KT 10SM CLR 25/20 A2984 RMK AO2 T02520197
KGYI 250615Z AUTO 15012G17KT 10SM CLR 25/19 A2983 RMK AO2 T02500192
KGYI 250555Z AUTO 15011G15KT 10SM CLR 25/19 A2983 RMK AO2 T02480186 10252 20241 403570241
KGYI 250535Z AUTO 13011KT 10SM CLR 25/18 A2985 RMK AO2 T02460183
KGYI 250515Z AUTO 13010KT 10SM CLR 25/18 A2986 RMK AO2 T02450183
KGYI 250455Z AUTO 12008KT 10SM CLR 25/19 A2986 RMK AO2 T02450185
KGYI 250435Z AUTO 12010KT 10SM CLR 25/19 A2988 RMK AO2 T02450185
KGYI 250415Z AUTO 12011KT 10SM CLR 25/19 A2988 RMK AO2 T02450185
KGYI 250355Z AUTO 11011KT 10SM CLR 25/19 A2988 RMK AO2 T02460185
KGYI 250335Z AUTO 10011G16KT 10SM CLR 25/19 A2988 RMK AO2 T02460185
KGYI 250315Z AUTO 11012G17KT 10SM CLR 25/19 A2987 RMK AO2 T02470185
KGYI 250255Z AUTO 12013G16KT 10SM CLR 25/19 A2986 RMK AO2 T02450186
KGYI 250235Z AUTO 11010KT 10SM CLR 24/19 A2985 RMK AO2 T02420189
KGYI 250215Z AUTO 11013G19KT 10SM CLR 24/19 A2985 RMK AO2 T02410190
KGYI 250155Z AUTO 10011KT 10SM CLR 25/19 A2985 RMK AO2 T02450191
KGYI 250135Z AUTO 10010G18KT 10SM CLR 25/19 A2985 RMK AO2 LTG DSNT E T02450192
KGYI 250110Z AUTO 10015G21KT 10SM CLR 25/19 A2986 RMK AO2 T02510192
KGYI 250055Z AUTO 10010KT 10SM CLR 25/19 A2986 RMK AO2 LTG DSNT E T02510193
KGYI 250035Z AUTO 09017G21KT 10SM CLR 25/19 A2987 RMK AO2 T02510193
KGYI 250015Z AUTO 09011G20KT 10SM CLR 25/20 A2988 RMK AO2 T02500197
KGYI 242355Z AUTO 08017G24KT 10SM CLR 25/20 A2988 RMK AO2 T02520201 10357 20243
KGYI 242335Z AUTO 08015G25KT 10SM CLR 26/20 A2987 RMK AO2 T02580202
KGYI 242315Z AUTO 08015G21KT 10SM CLR 27/20 A2986 RMK AO2 LTG DSNT NE T02650201
KGYI 242255Z AUTO 05017G21KT 10SM SCT055 SCT065 SCT100 27/19 A2989 RMK AO2 LTG DSNT N AND NE T02690192
KGYI 242235Z AUTO 06015G22KT 10SM BKN065 BKN075 25/20 A2989 RMK AO2 LTG DSNT N THRU E T02520195
KGYI 242215Z AUTO 01021G29KT 7SM SCT065 BKN085 BKN095 26/19 A2992 RMK AO2 LTG DSNT NE T02560188
KGYI 242155Z AUTO 14005KT 10SM SCT065 SCT080 SCT095 35/20 A2988 RMK AO2 LTG DSNT N AND NE T03500201
KGYI 242135Z AUTO 17007KT 10SM SCT065 BKN085 34/20 A2989 RMK AO2 LTG DSNT N AND NW T03370199
KGYI 242115Z AUTO 15006KT 10SM SCT055 BKN075 BKN085 34/20 A2989 RMK AO2 LTG DSNT N AND NW T03360202
KGYI 242055Z AUTO 19009G18KT 10SM SCT055 SCT065 34/20 A2988 RMK AO2 LTG DSNT N AND NW T03400200
KGYI 242035Z AUTO 15011KT 10SM SCT055 36/20 A2986 RMK AO2 LTG DSNT NW T03550202
KGYI 242015Z AUTO 17014G23KT 10SM CLR 36/20 A2983 RMK AO2 T03550201
KGYI 241955Z AUTO 16015KT 10SM CLR 35/20 A2981 RMK AO2 T03500200
KGYI 241935Z AUTO 19023G27KT 10SM CLR 35/19 A2980 RMK AO2 LTG DSNT N T03520194
KGYI 241915Z AUTO 17018G27KT 10SM CLR 34/21 A2980 RMK AO2 T03440206
KGYI 241855Z AUTO 17018G24KT 10SM CLR 34/21 A2982 RMK AO2 T03440210
KGYI 241835Z AUTO 16019G23KT 10SM CLR 34/21 A2982 RMK AO2 T03380213
KGYI 241815Z AUTO 17016G22KT 10SM CLR 33/21 A2984 RMK AO2 T03310211
KGYI 241755Z AUTO 17018G22KT 10SM SCT041 33/21 A2985 RMK AO2 T03280210 10329 20263
KGYI 241735Z AUTO 17016G21KT 10SM SCT041 32/21 A2986 RMK AO2 T03230209
KGYI 241715Z AUTO 15018G21KT 10SM BKN041 BKN046 32/21 A2987 RMK AO2 T03210210
KGYI 241655Z AUTO 14015G21KT 10SM SCT040 BKN046 32/21 A2988 RMK AO2 T03230209
KGYI 241635Z AUTO 17014G19KT 10SM SCT037 SCT044 32/21 A2988 RMK AO2 T03180209
KGYI 241615Z AUTO 17013G17KT 10SM SCT036 SCT044 32/21 A2989 RMK AO2 T03170210
KGYI 241555Z AUTO 15014G19KT 10SM SCT037 BKN044 31/21 A2989 RMK AO2 T03070208
KGYI 241535Z AUTO 15012G17KT 10SM SCT036 SCT044 31/21 A2989 RMK AO2 T03060210
KGYI 241515Z AUTO 16012G19KT 10SM SCT038 31/21 A2989 RMK AO2 LTG DSNT E T03050207
KGYI 241455Z AUTO 18011G16KT 10SM SCT034 SCT039 30/21 A2989 RMK AO2 T03010209
KGYI 241435Z AUTO 16016G20KT 10SM SCT030 SCT039 30/22 A2989 RMK AO2 T02960215
KGYI 241415Z AUTO 16012G18KT 10SM CLR 29/22 A2990 RMK AO2 T02930215
KGYI 241355Z AUTO 13013KT 10SM BKN050 28/22 A2988 RMK AO2 T02840219
KGYI 241335Z AUTO 13009KT 10SM BKN050 27/22 A2989 RMK AO2 T02730216
KGYI 241315Z AUTO 13009KT 10SM SCT037 OVC048 27/22 A2989 RMK AO2 LTG DSNT NE T02700216
KGYI 241255Z AUTO 12006KT 10SM SCT031 BKN040 OVC046 27/22 A2989 RMK AO2 T02660217
KGYI 241235Z AUTO 10003KT 10SM BKN029 BKN034 OVC044 27/22 A2990 RMK AO2 T02650217
KGYI 241215Z AUTO 14005KT 10SM OVC044 27/22 A2986 RMK AO2 LTG DSNT NE T02650216
KGYI 241155Z AUTO 17011KT 10SM SCT028 BKN034 OVC042 26/22 A2983 RMK AO2 LTG DSNT NE T02630217 10290 20260
KGYI 241135Z AUTO 17008KT 10SM OVC030 26/22 A2984 RMK AO2 LTG DSNT NE AND NW T02630216
KGYI 241115Z AUTO 18008KT 10SM BKN032 26/22 A2983 RMK AO2 T02620216
KGYI 241055Z AUTO 16010G15KT 10SM CLR 26/22 A2979 RMK AO2 LTG DSNT N T02610215
KGYI 241035Z AUTO 15013KT 10SM CLR 26/22 A2976 RMK AO2 T02630215
KGYI 241015Z AUTO 17017G22KT 10SM CLR 26/22 A2974 RMK AO2 T02640215
KGYI 240955Z AUTO 16015G21KT 10SM BKN026 27/22 A2974 RMK AO2 LTG DSNT N T02660217
KGYI 240935Z AUTO 16014G20KT 10SM OVC026 27/22 A2974 RMK AO2 LTG DSNT N T02700218
KGYI 240915Z AUTO 15015G21KT 10SM BKN026 27/22 A2974 RMK AO2 LTG DSNT NE T02700218
KGYI 240855Z AUTO 15015G24KT 10SM CLR 27/22 A2973 RMK AO2 T02700218
KGYI 240835Z AUTO 15015G22KT 10SM CLR 27/22 A2972 RMK AO2 T02720217
KGYI 240815Z AUTO 15018G22KT 10SM CLR 28/22 A2972 RMK AO2 T02750215
KGYI 240755Z AUTO 15016G24KT 10SM CLR 28/22 A2974 RMK AO2 T02780215
KGYI 240735Z AUTO 15016G21KT 10SM CLR 28/22 A2975 RMK AO2 T02820215
KGYI 240715Z AUTO 15018KT 10SM SCT095 29/21 A2975 RMK AO2 T02850214
KGYI 240655Z AUTO 16017G24KT 10SM BKN085 29/21 A2976 RMK AO2 LTG DSNT N AND S T02860214
KGYI 240635Z AUTO 17015G22KT 10SM BKN085 29/22 A2978 RMK AO2 LTG DSNT S AND SW T02870216
KGYI 240615Z AUTO 17013KT 10SM SCT085 29/22 A2980 RMK AO2 T02880216
KGYI 240555Z AUTO 17017G22KT 10SM SCT090 29/21 A2980 RMK AO2 LTG DSNT N AND SW T02900213 10331 20290 403510210
KGYI 240535Z AUTO 16013G21KT 10SM CLR 29/21 A2980 RMK AO2 LTG DSNT N AND SW T02910210
KGYI 240515Z AUTO 16017G22KT 10SM CLR 29/21 A2979 RMK AO2 LTG DSNT SW T02920210
KGYI 240455Z AUTO 16016G23KT 10SM CLR 29/21 A2978 RMK AO2 T02920207
KGYI 240435Z AUTO 15015G20KT 10SM CLR 29/21 A2979 RMK AO2 T02930205
KGYI 240415Z AUTO 15012G19KT 10SM CLR 30/20 A2979 RMK AO2 T02950203
KGYI 240355Z AUTO 15013G16KT 10SM CLR 30/20 A2980 RMK AO2 T02950202
KGYI 240335Z AUTO 14010KT 10SM CLR 30/20 A2979 RMK AO2 T02960200
KGYI 240315Z AUTO 13010G15KT 10SM CLR 30/20 A2978 RMK AO2 T02980200
KGYI 240255Z AUTO 13011G16KT 10SM CLR 30/20 A2977 RMK AO2 LTG DSNT W T02990200
KGYI 240235Z AUTO 15014G17KT 10SM CLR 30/20 A2976 RMK AO2 T03020196
KGYI 240215Z AUTO 15014KT 10SM CLR 31/20 A2976 RMK AO2 T03050195
KGYI 240155Z AUTO 15015KT 10SM CLR 31/20 A2975 RMK AO2 T03060195
KGYI 240135Z AUTO 15016KT 10SM SCT080 31/20 A2975 RMK AO2 T03120195
KGYI 240115Z AUTO 15011KT 10SM BKN080 32/20 A2976 RMK AO2 T03200202
KGYI 240055Z AUTO 16011G14KT 10SM OVC080 32/20 A2977 RMK AO2 T03220203
KGYI 240035Z AUTO 16011KT 10SM BKN080 33/20 A2977 RMK AO2 T03250203
KGYI 240015Z AUTO 16012KT 10SM SCT060 BKN080 33/20 A2977 RMK AO2 T03280202
KGYI 232355Z AUTO 15014KT 10SM SCT060 SCT080 33/20 A2977 RMK AO2 T03320200 10351 20302